Date,TemperatureHighF,TemperatureAvgF,TemperatureLowF,DewpointHighF,DewpointAvgF,DewpointLowF,HumidityHigh,HumidityAvg,HumidityLow,PressureMaxIn,PressureMinIn,WindSpeedMaxMPH,WindSpeedAvgMPH,GustSpeedMaxMPH,PrecipitationSumIn
2013-3-1,70.7,70.7,70.7,60.8,60.8,60.8,71,71,71,30.15,30.15,7,7,7,0.00
2013-3-2,70.7,70.7,70.7,60.8,60.8,60.8,71,71,71,30.15,30.15,7,7,7,0.00
2013-3-3,72.0,70.7,70.3,63.0,60.9,58.5,76,71,65,30.17,30.13,11,7,15,0.00
2013-3-4,77.4,71.7,67.8,64.2,60.3,55.9,83,68,56,30.19,30.09,17,6,18,0.01
2013-3-5,78.8,72.5,69.3,64.4,61.0,52.1,80,68,51,30.15,30.04,14,6,17,0.00
2013-3-6,70.7,70.1,67.6,64.9,64.1,61.2,85,81,79,30.13,30.05,11,4,14,0.00
2013-3-8,83.3,78.4,61.7,65.2,56.1,53.1,96,50,38,30.13,29.90,12,4,17,0.00
2013-3-9,81.7,76.9,70.0,69.9,62.7,53.6,93,65,38,29.90,29.79,21,6,25,0.70
2013-3-10,74.5,70.2,67.6,70.2,67.0,63.5,96,90,78,30.00,29.84,18,3,21,1.77
2013-3-11,79.3,70.9,64.2,70.9,65.4,62.8,97,84,62,30.03,29.94,7,2,8,0.01
2013-3-12,70.9,70.9,70.9,66.5,66.5,66.5,86,86,86,30.02,30.02,0,0,0,0.00
2013-3-13,70.9,70.9,70.9,66.5,66.5,66.5,86,86,86,30.02,30.02,0,0,0,0.00
2013-3-14,70.9,70.9,70.9,66.5,66.5,66.5,86,86,86,30.02,30.02,0,0,0,0.00
2013-3-15,80.1,72.2,63.7,66.5,63.0,58.9,95,74,53,30.02,29.84,15,3,18,0.00
2013-3-16,77.2,68.9,63.3,64.6,59.6,56.2,92,73,53,29.99,29.87,14,4,18,0.00
2013-3-17,63.3,63.3,63.3,58.4,58.4,58.4,84,84,84,29.99,29.99,2,2,2,0.00
2013-3-18,63.3,63.3,63.3,58.4,58.4,58.4,84,84,84,29.99,29.99,2,2,2,0.00
2013-3-19,63.3,63.3,63.3,58.4,58.4,58.4,84,84,84,29.99,29.99,2,2,2,0.00
2013-3-20,63.3,63.3,63.3,58.4,58.4,58.4,84,84,84,29.99,29.99,2,2,2,0.00
2013-3-21,63.3,63.3,63.3,58.4,58.4,58.4,84,84,84,29.99,29.99,2,2,2,0.00
2013-3-22,82.4,72.5,63.3,72.1,66.3,58.4,94,82,57,29.99,29.89,12,3,13,0.11
2013-3-23,74.1,71.6,70.5,70.9,69.0,65.7,95,92,83,30.02,29.92,11,2,15,0.91
2013-3-24,73.4,71.7,69.6,72.2,70.1,67.0,96,95,89,30.05,29.92,11,3,13,1.51
2013-3-25,79.3,73.4,69.6,74.7,69.9,68.1,97,89,76,30.01,29.91,9,2,12,0.07
2013-3-26,81.1,74.6,70.5,74.9,69.7,67.7,96,85,67,30.02,29.92,9,2,10,0.00
2013-3-27,75.9,72.4,70.5,73.0,69.7,65.5,95,91,84,30.03,29.92,12,4,16,0.12
2013-3-28,78.6,72.9,70.5,69.7,67.6,65.6,92,84,71,30.04,29.94,15,5,17,0.13
2013-3-29,74.8,71.9,69.6,69.7,67.3,64.3,93,86,76,30.05,29.98,11,4,14,0.13
2013-3-30,78.6,71.7,68.2,70.7,66.4,61.0,95,84,71,30.03,29.95,11,4,16,0.10
2013-3-31,76.3,68.8,59.7,62.0,56.8,53.6,86,66,53,30.04,29.93,11,5,16,0.00